sensor_id;sensor_type;location;lat;lon;timestamp;P1;durP1;ratioP1;P2;durP2;ratioP2
18520;SDS011;9390;51.244;6.982;2022-12-20T00:00:03;9.20;;;2.97;;
18520;SDS011;9390;51.244;6.982;2022-12-20T00:02:36;9.15;;;3.03;;
18520;SDS011;9390;51.244;6.982;2022-12-20T00:05:08;6.55;;;2.60;;
18520;SDS011;9390;51.244;6.982;2022-12-20T00:07:39;7.90;;;2.72;;
18520;SDS011;9390;51.244;6.982;2022-12-20T00:10:10;7.30;;;3.05;;
18520;SDS011;9390;51.244;6.982;2022-12-20T00:12:43;7.30;;;3.08;;
18520;SDS011;9390;51.244;6.982;2022-12-20T00:15:15;6.05;;;2.40;;
18520;SDS011;9390;51.244;6.982;2022-12-20T00:17:46;8.27;;;3.13;;
18520;SDS011;9390;51.244;6.982;2022-12-20T00:20:18;6.65;;;2.70;;
18520;SDS011;9390;51.244;6.982;2022-12-20T00:22:49;7.53;;;2.90;;
18520;SDS011;9390;51.244;6.982;2022-12-20T00:25:20;8.40;;;2.95;;
18520;SDS011;9390;51.244;6.982;2022-12-20T00:27:53;9.10;;;2.33;;
18520;SDS011;9390;51.244;6.982;2022-12-20T00:30:24;6.15;;;2.40;;
18520;SDS011;9390;51.244;6.982;2022-12-20T00:32:56;7.50;;;2.92;;
18520;SDS011;9390;51.244;6.982;2022-12-20T00:35:27;6.72;;;2.70;;
18520;SDS011;9390;51.244;6.982;2022-12-20T00:37:59;6.13;;;2.85;;
18520;SDS011;9390;51.244;6.982;2022-12-20T00:40:30;6.68;;;3.05;;
18520;SDS011;9390;51.244;6.982;2022-12-20T00:43:03;8.20;;;2.97;;
18520;SDS011;9390;51.244;6.982;2022-12-20T00:45:34;6.38;;;2.38;;
18520;SDS011;9390;51.244;6.982;2022-12-20T00:48:05;6.97;;;2.88;;
18520;SDS011;9390;51.244;6.982;2022-12-20T00:50:37;8.63;;;2.78;;
18520;SDS011;9390;51.244;6.982;2022-12-20T00:53:08;10.38;;;3.17;;
18520;SDS011;9390;51.244;6.982;2022-12-20T00:55:40;7.07;;;2.80;;
18520;SDS011;9390;51.244;6.982;2022-12-20T00:58:13;8.48;;;2.72;;
18520;SDS011;9390;51.244;6.982;2022-12-20T01:00:45;7.28;;;2.60;;
18520;SDS011;9390;51.244;6.982;2022-12-20T01:03:16;6.57;;;2.47;;
18520;SDS011;9390;51.244;6.982;2022-12-20T01:05:51;8.32;;;3.03;;
18520;SDS011;9390;51.244;6.982;2022-12-20T01:08:23;6.43;;;2.50;;
18520;SDS011;9390;51.244;6.982;2022-12-20T01:10:58;7.93;;;2.67;;
18520;SDS011;9390;51.244;6.982;2022-12-20T01:13:32;4.97;;;2.28;;
18520;SDS011;9390;51.244;6.982;2022-12-20T01:16:05;6.60;;;2.75;;
18520;SDS011;9390;51.244;6.982;2022-12-20T01:18:37;7.00;;;2.58;;
18520;SDS011;9390;51.244;6.982;2022-12-20T01:21:09;7.55;;;2.83;;
18520;SDS011;9390;51.244;6.982;2022-12-20T01:23:42;6.93;;;2.63;;
18520;SDS011;9390;51.244;6.982;2022-12-20T01:26:14;7.75;;;2.85;;
18520;SDS011;9390;51.244;6.982;2022-12-20T01:28:50;6.55;;;2.88;;
18520;SDS011;9390;51.244;6.982;2022-12-20T01:31:23;7.13;;;2.83;;
18520;SDS011;9390;51.244;6.982;2022-12-20T01:33:55;8.98;;;2.70;;
18520;SDS011;9390;51.244;6.982;2022-12-20T01:36:27;5.88;;;2.72;;
18520;SDS011;9390;51.244;6.982;2022-12-20T01:41:32;5.10;;;2.60;;
18520;SDS011;9390;51.244;6.982;2022-12-20T01:44:05;8.32;;;2.75;;
18520;SDS011;9390;51.244;6.982;2022-12-20T01:49:29;7.50;;;3.20;;
18520;SDS011;9390;51.244;6.982;2022-12-20T01:52:03;7.82;;;2.95;;
18520;SDS011;9390;51.244;6.982;2022-12-20T01:54:37;5.45;;;2.60;;
18520;SDS011;9390;51.244;6.982;2022-12-20T01:57:11;7.40;;;2.92;;
18520;SDS011;9390;51.244;6.982;2022-12-20T01:59:47;10.43;;;3.15;;
18520;SDS011;9390;51.244;6.982;2022-12-20T02:02:19;7.38;;;3.17;;
18520;SDS011;9390;51.244;6.982;2022-12-20T02:04:50;7.82;;;3.33;;
18520;SDS011;9390;51.244;6.982;2022-12-20T02:07:23;7.80;;;3.33;;
18520;SDS011;9390;51.244;6.982;2022-12-20T02:09:55;7.38;;;3.05;;
18520;SDS011;9390;51.244;6.982;2022-12-20T02:12:29;8.25;;;3.40;;
18520;SDS011;9390;51.244;6.982;2022-12-20T02:15:09;8.40;;;3.15;;
18520;SDS011;9390;51.244;6.982;2022-12-20T02:17:52;7.50;;;2.90;;
18520;SDS011;9390;51.244;6.982;2022-12-20T02:20:46;7.15;;;2.95;;
18520;SDS011;9390;51.244;6.982;2022-12-20T02:23:27;10.68;;;3.22;;
18520;SDS011;9390;51.244;6.982;2022-12-20T02:26:13;6.72;;;2.95;;
18520;SDS011;9390;51.244;6.982;2022-12-20T02:28:56;7.72;;;3.75;;
18520;SDS011;9390;51.244;6.982;2022-12-20T02:31:39;7.68;;;3.38;;
18520;SDS011;9390;51.244;6.982;2022-12-20T02:34:12;7.50;;;3.42;;
18520;SDS011;9390;51.244;6.982;2022-12-20T02:36:44;10.27;;;3.50;;
18520;SDS011;9390;51.244;6.982;2022-12-20T02:39:15;8.25;;;3.80;;
18520;SDS011;9390;51.244;6.982;2022-12-20T02:41:47;10.32;;;3.58;;
18520;SDS011;9390;51.244;6.982;2022-12-20T02:44:22;6.35;;;3.28;;
18520;SDS011;9390;51.244;6.982;2022-12-20T02:47:16;9.10;;;4.00;;
18520;SDS011;9390;51.244;6.982;2022-12-20T02:49:49;7.90;;;3.17;;
18520;SDS011;9390;51.244;6.982;2022-12-20T02:52:22;8.90;;;3.67;;
18520;SDS011;9390;51.244;6.982;2022-12-20T02:54:55;9.45;;;3.35;;
18520;SDS011;9390;51.244;6.982;2022-12-20T02:57:28;9.07;;;3.78;;
18520;SDS011;9390;51.244;6.982;2022-12-20T03:00:04;8.50;;;3.33;;
18520;SDS011;9390;51.244;6.982;2022-12-20T03:02:38;9.30;;;4.00;;
18520;SDS011;9390;51.244;6.982;2022-12-20T03:05:28;9.10;;;3.70;;
18520;SDS011;9390;51.244;6.982;2022-12-20T03:08:01;7.47;;;4.00;;
18520;SDS011;9390;51.244;6.982;2022-12-20T03:10:33;6.55;;;3.50;;
18520;SDS011;9390;51.244;6.982;2022-12-20T03:13:04;12.07;;;4.13;;
18520;SDS011;9390;51.244;6.982;2022-12-20T03:15:36;8.50;;;3.58;;
18520;SDS011;9390;51.244;6.982;2022-12-20T03:18:08;8.48;;;4.03;;
18520;SDS011;9390;51.244;6.982;2022-12-20T03:20:40;7.63;;;3.70;;
18520;SDS011;9390;51.244;6.982;2022-12-20T03:23:11;8.25;;;3.75;;
18520;SDS011;9390;51.244;6.982;2022-12-20T03:25:43;7.50;;;4.30;;
18520;SDS011;9390;51.244;6.982;2022-12-20T03:28:14;9.32;;;3.97;;
18520;SDS011;9390;51.244;6.982;2022-12-20T03:30:46;11.70;;;4.30;;
18520;SDS011;9390;51.244;6.982;2022-12-20T03:33:18;9.45;;;4.20;;
18520;SDS011;9390;51.244;6.982;2022-12-20T03:35:50;11.05;;;4.13;;
18520;SDS011;9390;51.244;6.982;2022-12-20T03:38:21;11.35;;;4.20;;
18520;SDS011;9390;51.244;6.982;2022-12-20T03:40:53;10.68;;;4.43;;
18520;SDS011;9390;51.244;6.982;2022-12-20T03:43:24;7.97;;;3.80;;
18520;SDS011;9390;51.244;6.982;2022-12-20T03:45:56;8.60;;;3.70;;
18520;SDS011;9390;51.244;6.982;2022-12-20T03:48:28;8.15;;;3.95;;
18520;SDS011;9390;51.244;6.982;2022-12-20T03:51:00;9.52;;;3.65;;
18520;SDS011;9390;51.244;6.982;2022-12-20T03:53:31;7.95;;;4.43;;
18520;SDS011;9390;51.244;6.982;2022-12-20T03:56:03;8.85;;;4.32;;
18520;SDS011;9390;51.244;6.982;2022-12-20T03:58:35;8.07;;;3.60;;
18520;SDS011;9390;51.244;6.982;2022-12-20T04:01:15;9.93;;;3.97;;
18520;SDS011;9390;51.244;6.982;2022-12-20T04:03:49;11.52;;;4.10;;
18520;SDS011;9390;51.244;6.982;2022-12-20T04:06:21;10.07;;;4.30;;
18520;SDS011;9390;51.244;6.982;2022-12-20T04:08:53;8.73;;;3.70;;
18520;SDS011;9390;51.244;6.982;2022-12-20T04:11:24;9.57;;;4.03;;
18520;SDS011;9390;51.244;6.982;2022-12-20T04:13:55;14.05;;;4.30;;
18520;SDS011;9390;51.244;6.982;2022-12-20T04:16:27;8.23;;;4.18;;
18520;SDS011;9390;51.244;6.982;2022-12-20T04:19:00;7.40;;;3.75;;
18520;SDS011;9390;51.244;6.982;2022-12-20T04:21:32;10.63;;;4.30;;
18520;SDS011;9390;51.244;6.982;2022-12-20T04:24:05;8.80;;;4.38;;
18520;SDS011;9390;51.244;6.982;2022-12-20T04:26:36;12.00;;;4.40;;
18520;SDS011;9390;51.244;6.982;2022-12-20T04:29:08;8.80;;;4.35;;
18520;SDS011;9390;51.244;6.982;2022-12-20T04:31:39;12.93;;;5.45;;
18520;SDS011;9390;51.244;6.982;2022-12-20T04:34:12;12.48;;;4.72;;
18520;SDS011;9390;51.244;6.982;2022-12-20T04:36:43;13.70;;;5.40;;
18520;SDS011;9390;51.244;6.982;2022-12-20T04:39:15;11.32;;;4.72;;
18520;SDS011;9390;51.244;6.982;2022-12-20T04:41:46;15.40;;;5.68;;
18520;SDS011;9390;51.244;6.982;2022-12-20T04:44:18;12.00;;;5.60;;
18520;SDS011;9390;51.244;6.982;2022-12-20T04:46:49;9.45;;;4.80;;
18520;SDS011;9390;51.244;6.982;2022-12-20T04:49:22;13.13;;;5.28;;
18520;SDS011;9390;51.244;6.982;2022-12-20T04:51:53;10.23;;;5.20;;
18520;SDS011;9390;51.244;6.982;2022-12-20T04:54:44;11.43;;;4.95;;
18520;SDS011;9390;51.244;6.982;2022-12-20T04:57:15;10.35;;;5.28;;
18520;SDS011;9390;51.244;6.982;2022-12-20T04:59:46;14.30;;;5.25;;
18520;SDS011;9390;51.244;6.982;2022-12-20T05:02:18;16.52;;;6.05;;
18520;SDS011;9390;51.244;6.982;2022-12-20T05:04:50;13.07;;;6.15;;
18520;SDS011;9390;51.244;6.982;2022-12-20T05:07:22;14.32;;;5.22;;
18520;SDS011;9390;51.244;6.982;2022-12-20T05:09:53;13.85;;;6.57;;
18520;SDS011;9390;51.244;6.982;2022-12-20T05:12:25;13.80;;;6.05;;
18520;SDS011;9390;51.244;6.982;2022-12-20T05:14:56;13.13;;;5.75;;
18520;SDS011;9390;51.244;6.982;2022-12-20T05:17:27;16.30;;;6.18;;
18520;SDS011;9390;51.244;6.982;2022-12-20T05:20:00;15.57;;;6.18;;
18520;SDS011;9390;51.244;6.982;2022-12-20T05:22:32;13.73;;;6.28;;
18520;SDS011;9390;51.244;6.982;2022-12-20T05:25:21;14.45;;;6.03;;
18520;SDS011;9390;51.244;6.982;2022-12-20T05:28:10;13.07;;;6.32;;
18520;SDS011;9390;51.244;6.982;2022-12-20T05:30:42;15.15;;;6.50;;
18520;SDS011;9390;51.244;6.982;2022-12-20T05:33:14;15.38;;;6.78;;
18520;SDS011;9390;51.244;6.982;2022-12-20T05:35:46;14.63;;;6.05;;
18520;SDS011;9390;51.244;6.982;2022-12-20T05:38:18;13.13;;;6.55;;
18520;SDS011;9390;51.244;6.982;2022-12-20T05:40:49;11.95;;;6.18;;
18520;SDS011;9390;51.244;6.982;2022-12-20T05:43:22;14.30;;;7.03;;
18520;SDS011;9390;51.244;6.982;2022-12-20T05:45:53;11.75;;;6.47;;
18520;SDS011;9390;51.244;6.982;2022-12-20T05:48:24;14.07;;;6.53;;
18520;SDS011;9390;51.244;6.982;2022-12-20T05:50:57;14.18;;;6.90;;
18520;SDS011;9390;51.244;6.982;2022-12-20T05:53:29;12.75;;;6.53;;
18520;SDS011;9390;51.244;6.982;2022-12-20T05:56:00;13.57;;;6.90;;
18520;SDS011;9390;51.244;6.982;2022-12-20T05:58:31;12.13;;;6.20;;
18520;SDS011;9390;51.244;6.982;2022-12-20T06:01:04;11.10;;;6.10;;
18520;SDS011;9390;51.244;6.982;2022-12-20T06:03:36;12.77;;;6.65;;
18520;SDS011;9390;51.244;6.982;2022-12-20T06:06:09;11.80;;;6.32;;
18520;SDS011;9390;51.244;6.982;2022-12-20T06:08:41;12.35;;;6.88;;
18520;SDS011;9390;51.244;6.982;2022-12-20T06:11:12;13.30;;;6.65;;
18520;SDS011;9390;51.244;6.982;2022-12-20T06:13:44;11.45;;;6.07;;
18520;SDS011;9390;51.244;6.982;2022-12-20T06:16:16;13.23;;;6.75;;
18520;SDS011;9390;51.244;6.982;2022-12-20T06:18:49;15.35;;;6.25;;
18520;SDS011;9390;51.244;6.982;2022-12-20T06:21:22;12.40;;;5.78;;
18520;SDS011;9390;51.244;6.982;2022-12-20T06:23:54;11.23;;;5.82;;
18520;SDS011;9390;51.244;6.982;2022-12-20T06:26:25;12.57;;;6.22;;
18520;SDS011;9390;51.244;6.982;2022-12-20T06:28:57;11.73;;;5.75;;
18520;SDS011;9390;51.244;6.982;2022-12-20T06:31:31;14.07;;;5.40;;
18520;SDS011;9390;51.244;6.982;2022-12-20T06:34:02;12.38;;;5.38;;
18520;SDS011;9390;51.244;6.982;2022-12-20T06:36:35;9.75;;;5.50;;
18520;SDS011;9390;51.244;6.982;2022-12-20T06:39:07;12.35;;;5.32;;
18520;SDS011;9390;51.244;6.982;2022-12-20T06:41:39;12.35;;;5.43;;
18520;SDS011;9390;51.244;6.982;2022-12-20T06:44:11;10.98;;;5.70;;
18520;SDS011;9390;51.244;6.982;2022-12-20T06:46:42;10.57;;;5.32;;
18520;SDS011;9390;51.244;6.982;2022-12-20T06:49:14;13.77;;;5.07;;
18520;SDS011;9390;51.244;6.982;2022-12-20T06:51:47;9.23;;;4.85;;
18520;SDS011;9390;51.244;6.982;2022-12-20T06:54:18;10.85;;;4.90;;
18520;SDS011;9390;51.244;6.982;2022-12-20T06:56:50;11.00;;;5.43;;
18520;SDS011;9390;51.244;6.982;2022-12-20T06:59:22;11.98;;;4.85;;
18520;SDS011;9390;51.244;6.982;2022-12-20T07:01:53;11.90;;;5.20;;
18520;SDS011;9390;51.244;6.982;2022-12-20T07:04:25;10.43;;;4.95;;
18520;SDS011;9390;51.244;6.982;2022-12-20T07:06:58;10.50;;;4.85;;
18520;SDS011;9390;51.244;6.982;2022-12-20T07:09:30;11.40;;;4.95;;
18520;SDS011;9390;51.244;6.982;2022-12-20T07:12:01;11.65;;;4.80;;
18520;SDS011;9390;51.244;6.982;2022-12-20T07:14:34;12.38;;;5.10;;
18520;SDS011;9390;51.244;6.982;2022-12-20T07:17:05;9.95;;;5.47;;
18520;SDS011;9390;51.244;6.982;2022-12-20T07:19:37;11.27;;;5.15;;
18520;SDS011;9390;51.244;6.982;2022-12-20T07:22:10;11.50;;;5.10;;
18520;SDS011;9390;51.244;6.982;2022-12-20T07:24:42;10.23;;;5.30;;
18520;SDS011;9390;51.244;6.982;2022-12-20T07:27:13;12.60;;;5.65;;
18520;SDS011;9390;51.244;6.982;2022-12-20T07:29:45;12.00;;;5.25;;
18520;SDS011;9390;51.244;6.982;2022-12-20T07:32:17;11.13;;;4.85;;
18520;SDS011;9390;51.244;6.982;2022-12-20T07:34:48;12.43;;;4.88;;
18520;SDS011;9390;51.244;6.982;2022-12-20T07:37:21;10.43;;;5.20;;
18520;SDS011;9390;51.244;6.982;2022-12-20T07:39:53;17.02;;;5.40;;
18520;SDS011;9390;51.244;6.982;2022-12-20T07:42:25;10.75;;;4.80;;
18520;SDS011;9390;51.244;6.982;2022-12-20T07:44:56;9.32;;;4.72;;
18520;SDS011;9390;51.244;6.982;2022-12-20T07:47:28;13.93;;;4.50;;
18520;SDS011;9390;51.244;6.982;2022-12-20T07:49:59;8.57;;;4.25;;
18520;SDS011;9390;51.244;6.982;2022-12-20T07:52:33;8.87;;;4.20;;
18520;SDS011;9390;51.244;6.982;2022-12-20T07:57:38;12.25;;;4.70;;
18520;SDS011;9390;51.244;6.982;2022-12-20T08:00:12;8.82;;;4.32;;
18520;SDS011;9390;51.244;6.982;2022-12-20T08:02:45;10.25;;;4.07;;
18520;SDS011;9390;51.244;6.982;2022-12-20T08:05:19;11.27;;;4.30;;
18520;SDS011;9390;51.244;6.982;2022-12-20T08:07:52;8.95;;;4.30;;
18520;SDS011;9390;51.244;6.982;2022-12-20T08:10:25;9.80;;;4.40;;
18520;SDS011;9390;51.244;6.982;2022-12-20T08:12:57;9.55;;;4.50;;
18520;SDS011;9390;51.244;6.982;2022-12-20T08:15:29;8.98;;;4.07;;
18520;SDS011;9390;51.244;6.982;2022-12-20T08:18:01;10.35;;;3.92;;
18520;SDS011;9390;51.244;6.982;2022-12-20T08:20:33;13.15;;;4.60;;
18520;SDS011;9390;51.244;6.982;2022-12-20T08:23:06;13.32;;;4.07;;
18520;SDS011;9390;51.244;6.982;2022-12-20T08:25:37;9.20;;;4.07;;
18520;SDS011;9390;51.244;6.982;2022-12-20T08:28:09;10.02;;;3.90;;
18520;SDS011;9390;51.244;6.982;2022-12-20T08:30:40;9.98;;;4.15;;
18520;SDS011;9390;51.244;6.982;2022-12-20T08:33:12;10.77;;;3.90;;
18520;SDS011;9390;51.244;6.982;2022-12-20T08:35:43;8.10;;;4.07;;
18520;SDS011;9390;51.244;6.982;2022-12-20T08:38:16;8.32;;;4.05;;
18520;SDS011;9390;51.244;6.982;2022-12-20T08:40:48;9.77;;;3.78;;
18520;SDS011;9390;51.244;6.982;2022-12-20T08:43:19;10.43;;;4.43;;
18520;SDS011;9390;51.244;6.982;2022-12-20T08:45:51;9.25;;;3.80;;
18520;SDS011;9390;51.244;6.982;2022-12-20T08:48:24;9.90;;;3.35;;
18520;SDS011;9390;51.244;6.982;2022-12-20T08:50:56;8.82;;;4.10;;
18520;SDS011;9390;51.244;6.982;2022-12-20T08:53:30;9.05;;;3.38;;
18520;SDS011;9390;51.244;6.982;2022-12-20T08:56:02;9.35;;;3.70;;
18520;SDS011;9390;51.244;6.982;2022-12-20T08:58:35;7.32;;;3.30;;
18520;SDS011;9390;51.244;6.982;2022-12-20T09:01:08;10.35;;;4.05;;
18520;SDS011;9390;51.244;6.982;2022-12-20T09:03:41;7.63;;;3.55;;
18520;SDS011;9390;51.244;6.982;2022-12-20T09:06:14;7.90;;;3.67;;
18520;SDS011;9390;51.244;6.982;2022-12-20T09:08:48;10.35;;;3.70;;
18520;SDS011;9390;51.244;6.982;2022-12-20T09:13:52;7.80;;;3.80;;
18520;SDS011;9390;51.244;6.982;2022-12-20T09:18:58;9.60;;;3.03;;
18520;SDS011;9390;51.244;6.982;2022-12-20T09:21:30;8.70;;;3.38;;
18520;SDS011;9390;51.244;6.982;2022-12-20T09:24:04;8.05;;;3.50;;
18520;SDS011;9390;51.244;6.982;2022-12-20T09:26:37;10.05;;;3.50;;
18520;SDS011;9390;51.244;6.982;2022-12-20T09:29:09;8.63;;;3.83;;
18520;SDS011;9390;51.244;6.982;2022-12-20T09:31:41;7.63;;;3.33;;
18520;SDS011;9390;51.244;6.982;2022-12-20T09:34:13;6.85;;;3.13;;
18520;SDS011;9390;51.244;6.982;2022-12-20T09:36:44;6.40;;;3.10;;
18520;SDS011;9390;51.244;6.982;2022-12-20T09:39:17;10.73;;;3.28;;
18520;SDS011;9390;51.244;6.982;2022-12-20T09:44:22;10.35;;;3.22;;
18520;SDS011;9390;51.244;6.982;2022-12-20T09:46:57;7.85;;;3.28;;
18520;SDS011;9390;51.244;6.982;2022-12-20T09:49:30;12.57;;;3.33;;
18520;SDS011;9390;51.244;6.982;2022-12-20T09:52:18;9.25;;;3.28;;
18520;SDS011;9390;51.244;6.982;2022-12-20T09:55:11;5.43;;;2.92;;
18520;SDS011;9390;51.244;6.982;2022-12-20T09:57:56;8.93;;;3.35;;
18520;SDS011;9390;51.244;6.982;2022-12-20T10:00:34;8.60;;;3.70;;
18520;SDS011;9390;51.244;6.982;2022-12-20T10:03:07;5.28;;;2.83;;
18520;SDS011;9390;51.244;6.982;2022-12-20T10:05:43;8.57;;;3.30;;
18520;SDS011;9390;51.244;6.982;2022-12-20T10:08:22;9.10;;;3.45;;
18520;SDS011;9390;51.244;6.982;2022-12-20T10:10:58;7.47;;;3.38;;
18520;SDS011;9390;51.244;6.982;2022-12-20T10:13:34;8.95;;;3.17;;
18520;SDS011;9390;51.244;6.982;2022-12-20T10:16:15;9.75;;;3.30;;
18520;SDS011;9390;51.244;6.982;2022-12-20T10:18:59;9.45;;;3.53;;
18520;SDS011;9390;51.244;6.982;2022-12-20T10:21:36;5.90;;;2.90;;
18520;SDS011;9390;51.244;6.982;2022-12-20T10:24:15;8.63;;;3.33;;
18520;SDS011;9390;51.244;6.982;2022-12-20T10:26:49;8.95;;;3.00;;
18520;SDS011;9390;51.244;6.982;2022-12-20T10:29:21;9.15;;;3.15;;
18520;SDS011;9390;51.244;6.982;2022-12-20T10:31:53;6.95;;;2.85;;
18520;SDS011;9390;51.244;6.982;2022-12-20T10:34:29;5.85;;;2.55;;
18520;SDS011;9390;51.244;6.982;2022-12-20T10:37:11;6.78;;;2.80;;
18520;SDS011;9390;51.244;6.982;2022-12-20T10:39:46;8.57;;;3.13;;
18520;SDS011;9390;51.244;6.982;2022-12-20T10:42:31;7.38;;;3.17;;
18520;SDS011;9390;51.244;6.982;2022-12-20T10:45:17;8.20;;;3.03;;
18520;SDS011;9390;51.244;6.982;2022-12-20T10:47:58;6.25;;;3.03;;
18520;SDS011;9390;51.244;6.982;2022-12-20T10:50:30;9.05;;;3.15;;
18520;SDS011;9390;51.244;6.982;2022-12-20T10:53:17;7.15;;;2.78;;
18520;SDS011;9390;51.244;6.982;2022-12-20T10:55:52;8.18;;;3.00;;
18520;SDS011;9390;51.244;6.982;2022-12-20T10:58:29;7.63;;;2.92;;
18520;SDS011;9390;51.244;6.982;2022-12-20T11:01:05;9.93;;;2.58;;
18520;SDS011;9390;51.244;6.982;2022-12-20T11:03:49;9.90;;;2.75;;
18520;SDS011;9390;51.244;6.982;2022-12-20T11:06:27;6.82;;;2.50;;
18520;SDS011;9390;51.244;6.982;2022-12-20T11:12:03;6.55;;;2.60;;
18520;SDS011;9390;51.244;6.982;2022-12-20T11:14:37;8.48;;;2.33;;
18520;SDS011;9390;51.244;6.982;2022-12-20T11:17:15;6.65;;;2.65;;
18520;SDS011;9390;51.244;6.982;2022-12-20T11:19:54;7.80;;;3.03;;
18520;SDS011;9390;51.244;6.982;2022-12-20T11:22:40;6.68;;;2.47;;
18520;SDS011;9390;51.244;6.982;2022-12-20T11:25:21;5.88;;;2.05;;
18520;SDS011;9390;51.244;6.982;2022-12-20T11:28:04;6.07;;;2.75;;
18520;SDS011;9390;51.244;6.982;2022-12-20T11:30:50;4.88;;;2.10;;
18520;SDS011;9390;51.244;6.982;2022-12-20T11:33:39;5.60;;;2.17;;
18520;SDS011;9390;51.244;6.982;2022-12-20T11:36:17;5.97;;;2.50;;
18520;SDS011;9390;51.244;6.982;2022-12-20T11:38:58;9.90;;;2.47;;
18520;SDS011;9390;51.244;6.982;2022-12-20T11:41:36;6.30;;;2.47;;
18520;SDS011;9390;51.244;6.982;2022-12-20T11:44:16;4.32;;;2.42;;
18520;SDS011;9390;51.244;6.982;2022-12-20T11:46:57;4.53;;;2.08;;
18520;SDS011;9390;51.244;6.982;2022-12-20T11:49:41;7.55;;;2.63;;
18520;SDS011;9390;51.244;6.982;2022-12-20T11:52:23;9.35;;;3.03;;
18520;SDS011;9390;51.244;6.982;2022-12-20T11:55:06;5.00;;;2.40;;
18520;SDS011;9390;51.244;6.982;2022-12-20T11:57:45;5.03;;;2.38;;
18520;SDS011;9390;51.244;6.982;2022-12-20T12:00:19;7.72;;;2.63;;
18520;SDS011;9390;51.244;6.982;2022-12-20T12:02:54;9.82;;;2.83;;
18520;SDS011;9390;51.244;6.982;2022-12-20T12:05:28;10.70;;;2.60;;
18520;SDS011;9390;51.244;6.982;2022-12-20T12:08:09;6.05;;;2.42;;
18520;SDS011;9390;51.244;6.982;2022-12-20T12:10:54;5.93;;;2.40;;
18520;SDS011;9390;51.244;6.982;2022-12-20T12:13:29;4.70;;;2.20;;
18520;SDS011;9390;51.244;6.982;2022-12-20T12:16:02;7.30;;;2.35;;
18520;SDS011;9390;51.244;6.982;2022-12-20T12:18:38;4.85;;;2.40;;
18520;SDS011;9390;51.244;6.982;2022-12-20T12:21:12;8.63;;;2.67;;
18520;SDS011;9390;51.244;6.982;2022-12-20T12:23:50;8.00;;;2.50;;
18520;SDS011;9390;51.244;6.982;2022-12-20T12:26:28;4.65;;;2.30;;
18520;SDS011;9390;51.244;6.982;2022-12-20T12:29:02;7.65;;;2.38;;
18520;SDS011;9390;51.244;6.982;2022-12-20T12:31:35;6.65;;;2.35;;
18520;SDS011;9390;51.244;6.982;2022-12-20T12:34:12;5.63;;;2.50;;
18520;SDS011;9390;51.244;6.982;2022-12-20T12:37:03;13.05;;;3.15;;
18520;SDS011;9390;51.244;6.982;2022-12-20T12:40:06;8.00;;;2.35;;
18520;SDS011;9390;51.244;6.982;2022-12-20T12:45:40;4.60;;;2.30;;
18520;SDS011;9390;51.244;6.982;2022-12-20T12:48:14;9.77;;;2.92;;
18520;SDS011;9390;51.244;6.982;2022-12-20T12:50:50;6.72;;;2.47;;
18520;SDS011;9390;51.244;6.982;2022-12-20T12:53:25;6.28;;;2.72;;
18520;SDS011;9390;51.244;6.982;2022-12-20T12:59:07;7.07;;;2.75;;
18520;SDS011;9390;51.244;6.982;2022-12-20T13:01:53;9.82;;;3.10;;
18520;SDS011;9390;51.244;6.982;2022-12-20T13:04:26;8.27;;;3.65;;
18520;SDS011;9390;51.244;6.982;2022-12-20T13:07:01;10.05;;;3.17;;
18520;SDS011;9390;51.244;6.982;2022-12-20T13:09:36;12.68;;;3.38;;
18520;SDS011;9390;51.244;6.982;2022-12-20T13:18:24;8.95;;;3.28;;
18520;SDS011;9390;51.244;6.982;2022-12-20T13:21:16;7.75;;;3.40;;
18520;SDS011;9390;51.244;6.982;2022-12-20T13:27:17;11.23;;;4.10;;
18520;SDS011;9390;51.244;6.982;2022-12-20T13:29:57;9.75;;;4.60;;
18520;SDS011;9390;51.244;6.982;2022-12-20T13:35:26;8.30;;;4.65;;
18520;SDS011;9390;51.244;6.982;2022-12-20T13:38:00;8.07;;;4.28;;
18520;SDS011;9390;51.244;6.982;2022-12-20T13:40:34;11.63;;;4.40;;
18520;SDS011;9390;51.244;6.982;2022-12-20T13:43:11;10.38;;;4.97;;
18520;SDS011;9390;51.244;6.982;2022-12-20T13:45:47;11.25;;;4.47;;
18520;SDS011;9390;51.244;6.982;2022-12-20T13:48:21;12.30;;;5.55;;
18520;SDS011;9390;51.244;6.982;2022-12-20T13:50:56;11.05;;;4.97;;
18520;SDS011;9390;51.244;6.982;2022-12-20T13:53:28;9.35;;;4.72;;
18520;SDS011;9390;51.244;6.982;2022-12-20T13:56:15;11.80;;;4.90;;
18520;SDS011;9390;51.244;6.982;2022-12-20T13:58:52;10.30;;;4.55;;
18520;SDS011;9390;51.244;6.982;2022-12-20T14:03:55;11.95;;;4.18;;
18520;SDS011;9390;51.244;6.982;2022-12-20T14:06:27;10.30;;;4.35;;
18520;SDS011;9390;51.244;6.982;2022-12-20T14:08:59;12.23;;;4.72;;
18520;SDS011;9390;51.244;6.982;2022-12-20T14:11:30;14.45;;;4.97;;
18520;SDS011;9390;51.244;6.982;2022-12-20T14:14:03;11.57;;;4.93;;
18520;SDS011;9390;51.244;6.982;2022-12-20T14:16:34;16.88;;;5.13;;
18520;SDS011;9390;51.244;6.982;2022-12-20T14:19:12;12.85;;;4.95;;
18520;SDS011;9390;51.244;6.982;2022-12-20T14:21:44;12.75;;;4.95;;
18520;SDS011;9390;51.244;6.982;2022-12-20T14:24:16;12.82;;;5.00;;
18520;SDS011;9390;51.244;6.982;2022-12-20T14:26:50;8.93;;;5.38;;
18520;SDS011;9390;51.244;6.982;2022-12-20T14:29:25;11.85;;;5.38;;
18520;SDS011;9390;51.244;6.982;2022-12-20T14:31:58;12.68;;;5.20;;
18520;SDS011;9390;51.244;6.982;2022-12-20T14:34:29;10.40;;;4.97;;
18520;SDS011;9390;51.244;6.982;2022-12-20T14:37:24;17.08;;;5.50;;
18520;SDS011;9390;51.244;6.982;2022-12-20T14:39:59;10.98;;;4.45;;
18520;SDS011;9390;51.244;6.982;2022-12-20T14:42:33;11.13;;;4.97;;
18520;SDS011;9390;51.244;6.982;2022-12-20T14:45:16;15.32;;;5.00;;
18520;SDS011;9390;51.244;6.982;2022-12-20T14:47:52;16.20;;;5.40;;
18520;SDS011;9390;51.244;6.982;2022-12-20T14:50:27;14.23;;;5.38;;
18520;SDS011;9390;51.244;6.982;2022-12-20T14:53:00;13.20;;;4.88;;
18520;SDS011;9390;51.244;6.982;2022-12-20T14:55:32;13.10;;;5.22;;
18520;SDS011;9390;51.244;6.982;2022-12-20T14:58:21;12.45;;;5.22;;
18520;SDS011;9390;51.244;6.982;2022-12-20T15:00:55;13.10;;;5.22;;
18520;SDS011;9390;51.244;6.982;2022-12-20T15:03:28;13.60;;;5.88;;
18520;SDS011;9390;51.244;6.982;2022-12-20T15:06:00;11.32;;;5.50;;
18520;SDS011;9390;51.244;6.982;2022-12-20T15:08:32;15.93;;;6.13;;
18520;SDS011;9390;51.244;6.982;2022-12-20T15:11:10;15.27;;;6.05;;
18520;SDS011;9390;51.244;6.982;2022-12-20T15:13:43;12.95;;;5.88;;
18520;SDS011;9390;51.244;6.982;2022-12-20T15:16:17;9.73;;;5.22;;
18520;SDS011;9390;51.244;6.982;2022-12-20T15:18:50;12.02;;;5.20;;
18520;SDS011;9390;51.244;6.982;2022-12-20T15:21:25;11.60;;;5.47;;
18520;SDS011;9390;51.244;6.982;2022-12-20T15:23:59;16.05;;;5.90;;
18520;SDS011;9390;51.244;6.982;2022-12-20T15:26:32;10.98;;;5.55;;
18520;SDS011;9390;51.244;6.982;2022-12-20T15:29:04;15.10;;;5.40;;
18520;SDS011;9390;51.244;6.982;2022-12-20T15:31:38;14.25;;;5.82;;
18520;SDS011;9390;51.244;6.982;2022-12-20T15:34:11;13.68;;;5.90;;
18520;SDS011;9390;51.244;6.982;2022-12-20T15:36:44;12.48;;;6.00;;
18520;SDS011;9390;51.244;6.982;2022-12-20T15:39:16;9.88;;;5.47;;
18520;SDS011;9390;51.244;6.982;2022-12-20T15:41:49;13.07;;;5.82;;
18520;SDS011;9390;51.244;6.982;2022-12-20T15:44:21;13.55;;;6.18;;
18520;SDS011;9390;51.244;6.982;2022-12-20T15:46:55;16.40;;;6.80;;
18520;SDS011;9390;51.244;6.982;2022-12-20T15:51:59;14.80;;;6.70;;
18520;SDS011;9390;51.244;6.982;2022-12-20T15:54:31;20.05;;;6.30;;
18520;SDS011;9390;51.244;6.982;2022-12-20T15:57:05;16.80;;;5.93;;
18520;SDS011;9390;51.244;6.982;2022-12-20T15:59:38;14.13;;;6.90;;
18520;SDS011;9390;51.244;6.982;2022-12-20T16:02:16;14.90;;;6.13;;
18520;SDS011;9390;51.244;6.982;2022-12-20T16:04:51;14.77;;;6.40;;
18520;SDS011;9390;51.244;6.982;2022-12-20T16:07:23;14.90;;;6.72;;
18520;SDS011;9390;51.244;6.982;2022-12-20T16:09:55;15.55;;;7.53;;
18520;SDS011;9390;51.244;6.982;2022-12-20T16:12:28;14.02;;;6.80;;
18520;SDS011;9390;51.244;6.982;2022-12-20T16:15:03;16.80;;;6.88;;
18520;SDS011;9390;51.244;6.982;2022-12-20T16:17:38;15.82;;;7.03;;
18520;SDS011;9390;51.244;6.982;2022-12-20T16:20:10;16.75;;;6.90;;